createdAt,value
2018-04-13T00:00:31.712Z,15.90
2018-04-13T00:03:00.551Z,16.00
2018-04-13T00:05:29.397Z,16.00
2018-04-13T00:07:58.262Z,16.00
2018-04-13T00:10:27.856Z,16.20
2018-04-13T00:12:56.730Z,16.10
2018-04-13T00:15:25.580Z,16.20
2018-04-13T00:17:54.426Z,16.20
2018-04-13T00:20:24.548Z,16.20
2018-04-13T00:22:54.162Z,16.30
2018-04-13T00:25:23.792Z,16.30
2018-04-13T00:27:52.650Z,16.20
2018-04-13T00:30:22.269Z,16.30
2018-04-13T00:32:51.137Z,16.20
2018-04-13T00:35:19.964Z,16.30
2018-04-13T00:37:48.814Z,16.20
2018-04-13T00:40:17.644Z,16.20
2018-04-13T00:42:47.257Z,16.10
2018-04-13T00:45:16.092Z,16.10
2018-04-13T00:47:44.956Z,16.10
2018-04-13T00:50:13.788Z,16.10
2018-04-13T00:52:43.573Z,16.00
2018-04-13T00:55:12.398Z,15.80
2018-04-13T00:57:41.246Z,15.70
2018-04-13T01:00:10.097Z,15.70
2018-04-13T01:02:39.705Z,15.70
2018-04-13T01:05:09.321Z,15.70
2018-04-13T01:07:38.948Z,15.70
2018-04-13T01:10:07.780Z,15.60
2018-04-13T01:12:36.632Z,15.70
2018-04-13T01:15:05.472Z,15.60
2018-04-13T01:17:35.108Z,15.60
2018-04-13T01:20:03.940Z,15.60
2018-04-13T01:22:32.911Z,15.40
2018-04-13T01:25:01.851Z,15.30
2018-04-13T01:27:30.680Z,15.20
2018-04-13T01:29:59.533Z,15.30
2018-04-13T01:32:29.142Z,15.30
2018-04-13T01:34:58.756Z,15.30
2018-04-13T01:37:28.371Z,15.40
2018-04-13T01:39:57.449Z,15.30
2018-04-13T01:42:26.329Z,15.40
2018-04-13T01:44:55.176Z,15.40
2018-04-13T01:47:24.779Z,15.40
2018-04-13T01:49:53.642Z,15.40
2018-04-13T01:52:22.467Z,15.40
2018-04-13T01:54:51.328Z,15.40
2018-04-13T01:57:20.165Z,15.30
2018-04-13T01:59:49.033Z,15.40
2018-04-13T02:02:17.865Z,15.40
2018-04-13T02:04:46.717Z,15.40
2018-04-13T02:07:16.323Z,15.40
2018-04-13T02:09:45.935Z,15.40
2018-04-13T02:12:15.544Z,15.40
2018-04-13T02:14:45.156Z,15.40
2018-04-13T02:17:14.776Z,15.20
2018-04-13T02:19:44.393Z,15.10
2018-04-13T02:22:13.750Z,15.00
2018-04-13T02:24:42.618Z,14.90
2018-04-13T02:27:11.440Z,14.80
2018-04-13T02:29:41.060Z,14.80
2018-04-13T02:32:10.692Z,14.80
2018-04-13T02:34:39.548Z,14.80
2018-04-13T02:37:08.472Z,14.80
2018-04-13T02:39:37.363Z,14.70
2018-04-13T02:42:06.234Z,14.80
2018-04-13T02:44:35.084Z,14.80
2018-04-13T02:47:03.935Z,14.80
2018-04-13T02:49:33.540Z,14.90
2018-04-13T02:52:03.156Z,14.80
2018-04-13T02:54:32.766Z,14.80
2018-04-13T02:57:02.397Z,14.80
2018-04-13T02:59:31.851Z,14.70
2018-04-13T03:02:01.468Z,14.80
2018-04-13T03:04:30.298Z,14.70
2018-04-13T03:06:59.152Z,14.60
2018-04-13T03:09:28.033Z,14.60
2018-04-13T03:11:56.902Z,14.60
2018-04-13T03:14:25.748Z,14.60
2018-04-13T03:16:54.596Z,14.50
2018-04-13T03:19:23.439Z,14.50
2018-04-13T03:21:52.321Z,14.40
2018-04-13T03:24:21.194Z,14.40
2018-04-13T03:26:50.799Z,14.40
2018-04-13T03:29:20.408Z,14.40
2018-04-13T03:31:50.038Z,14.50
2018-04-13T03:34:18.882Z,14.40
2018-04-13T03:36:48.485Z,14.60
2018-04-13T03:39:17.334Z,14.50
2018-04-13T03:41:46.167Z,14.60
2018-04-13T03:44:16.286Z,14.50
2018-04-13T03:46:45.910Z,14.40
2018-04-13T03:49:14.761Z,14.40
2018-04-13T03:51:44.584Z,14.50
2018-04-13T03:54:14.639Z,14.50
2018-04-13T03:56:43.483Z,14.40
2018-04-13T03:59:12.372Z,14.40
2018-04-13T04:01:41.210Z,14.40
2018-04-13T04:04:10.044Z,14.50
2018-04-13T04:06:38.900Z,14.50
2018-04-13T04:09:07.772Z,14.40
2018-04-13T04:11:36.616Z,14.40
2018-04-13T04:14:05.465Z,14.40
2018-04-13T04:16:34.317Z,14.40
2018-04-13T04:19:03.952Z,14.50
2018-04-13T04:21:44.562Z,14.40
2018-04-13T04:24:25.854Z,14.30
2018-04-13T04:26:55.376Z,14.10
2018-04-13T04:29:24.989Z,14.10
2018-04-13T04:31:54.613Z,14.20
2018-04-13T04:34:23.493Z,14.10
2018-04-13T04:36:52.386Z,14.20
2018-04-13T04:39:21.305Z,14.20
2018-04-13T04:41:50.210Z,14.20
2018-04-13T04:44:19.061Z,14.30
2018-04-13T04:46:48.693Z,14.10
2018-04-13T04:49:17.529Z,14.10
2018-04-13T04:51:46.384Z,14.10
2018-04-13T04:54:15.212Z,14.00
2018-04-13T04:56:44.060Z,13.90
2018-04-13T04:59:12.897Z,13.90
2018-04-13T05:01:41.753Z,13.90
2018-04-13T05:04:10.597Z,13.90
2018-04-13T05:06:40.749Z,13.80
2018-04-13T05:09:09.593Z,13.80
2018-04-13T05:11:38.453Z,13.80
2018-04-13T05:14:07.285Z,13.80
2018-04-13T05:16:36.906Z,13.90
2018-04-13T05:19:05.732Z,13.80
2018-04-13T05:21:34.594Z,13.80
2018-04-13T05:24:04.763Z,13.80
2018-04-13T05:26:34.524Z,13.90
2018-04-13T05:29:03.364Z,13.90
2018-04-13T05:31:33.717Z,13.90
2018-04-13T05:34:03.325Z,13.80
2018-04-13T05:36:32.930Z,13.90
2018-04-13T05:39:02.556Z,14.10
2018-04-13T05:41:31.585Z,14.00
2018-04-13T05:44:00.443Z,14.20
2018-04-13T05:46:29.273Z,14.40
2018-04-13T05:48:59.621Z,14.40
2018-04-13T05:51:29.224Z,14.50
2018-04-13T05:53:58.868Z,14.60
2018-04-13T05:56:27.700Z,14.60
2018-04-13T05:58:56.545Z,14.70
2018-04-13T06:01:25.392Z,14.60
2018-04-13T06:03:54.991Z,14.60
2018-04-13T06:06:24.927Z,14.60
2018-04-13T06:08:54.534Z,14.60
2018-04-13T06:11:24.565Z,14.70
2018-04-13T06:13:53.412Z,14.60
2018-04-13T06:16:22.262Z,14.60
2018-04-13T06:18:51.127Z,14.50
2018-04-13T06:21:20.724Z,14.50
2018-04-13T06:23:50.329Z,14.50
2018-04-13T06:26:19.944Z,14.60
2018-04-13T06:28:49.298Z,14.60
2018-04-13T06:31:18.585Z,14.60
2018-04-13T06:33:47.452Z,14.50
2018-04-13T06:36:16.304Z,14.40
2018-04-13T06:38:45.911Z,14.80
2018-04-13T06:41:14.781Z,14.70
2018-04-13T06:43:43.685Z,15.00
2018-04-13T06:46:12.494Z,15.10
2018-04-13T06:48:41.393Z,15.20
2018-04-13T06:51:10.185Z,15.00
2018-04-13T06:53:39.657Z,15.00
2018-04-13T06:56:08.476Z,15.10
2018-04-13T06:58:37.335Z,15.10
2018-04-13T07:01:06.961Z,14.70
2018-04-13T07:03:36.332Z,14.60
2018-04-13T07:06:05.947Z,14.90
2018-04-13T07:08:35.587Z,14.70
2018-04-13T07:11:04.409Z,14.70
2018-04-13T07:13:33.256Z,14.60
2018-04-13T07:16:02.108Z,14.70
2018-04-13T07:18:30.962Z,14.80
2018-04-13T07:20:59.810Z,15.00
2018-04-13T07:23:29.412Z,15.20
2018-04-13T07:25:59.020Z,15.10
2018-04-13T07:28:28.651Z,15.00
2018-04-13T07:30:57.484Z,14.90
2018-04-13T07:33:26.353Z,14.80
2018-04-13T07:35:55.252Z,14.80
2018-04-13T07:38:24.101Z,14.90
2018-04-13T07:40:52.956Z,14.90
2018-04-13T07:43:21.820Z,15.00
2018-04-13T07:45:50.662Z,15.00
2018-04-13T07:48:19.516Z,15.10
2018-04-13T07:50:48.373Z,15.10
2018-04-13T07:53:17.224Z,15.10
2018-04-13T07:55:46.100Z,15.20
2018-04-13T07:58:15.000Z,15.10
2018-04-13T08:00:44.615Z,15.30
2018-04-13T08:03:14.458Z,15.30
2018-04-13T08:05:43.313Z,15.30
2018-04-13T08:08:12.944Z,15.30
2018-04-13T08:10:42.556Z,15.40
2018-04-13T08:13:11.397Z,15.40
2018-04-13T08:15:41.767Z,15.40
2018-04-13T08:18:10.609Z,15.40
2018-04-13T08:20:39.468Z,15.30
2018-04-13T08:23:08.333Z,15.40
2018-04-13T08:25:37.188Z,15.50
2018-04-13T08:28:06.797Z,15.90
2018-04-13T08:30:36.411Z,15.90
2018-04-13T08:33:06.014Z,15.90
2018-04-13T08:35:35.754Z,15.90
2018-04-13T08:38:04.539Z,15.90
2018-04-13T08:40:34.132Z,16.00
2018-04-13T08:43:02.998Z,16.00
2018-04-13T08:45:32.628Z,16.50
2018-04-13T08:48:01.463Z,16.50
2018-04-13T08:50:30.318Z,16.30
2018-04-13T08:52:59.917Z,16.60
2018-04-13T08:55:29.550Z,16.70
2018-04-13T08:57:59.168Z,16.80
2018-04-13T09:00:28.033Z,16.70
2018-04-13T09:02:57.686Z,16.70
2018-04-13T09:05:26.554Z,16.70
2018-04-13T09:07:55.430Z,16.80
2018-04-13T09:10:25.014Z,16.90
2018-04-13T09:12:54.018Z,16.80
2018-04-13T09:15:27.578Z,16.80
2018-04-13T09:17:57.279Z,16.80
2018-04-13T09:20:26.126Z,16.80
2018-04-13T09:22:54.992Z,16.70
2018-04-13T09:25:23.826Z,16.70
2018-04-13T09:27:52.710Z,16.70
2018-04-13T09:30:21.547Z,16.50
2018-04-13T09:32:50.388Z,16.60
2018-04-13T09:35:19.597Z,16.70
2018-04-13T09:37:49.185Z,16.90
2018-04-13T09:40:18.033Z,16.90
2018-04-13T09:42:46.865Z,17.00
2018-04-13T09:45:15.733Z,17.00
2018-04-13T09:47:44.605Z,17.10
2018-04-13T09:50:13.464Z,17.10
2018-04-13T09:52:42.323Z,17.10
2018-04-13T09:55:11.162Z,17.10
2018-04-13T09:57:40.035Z,17.00
2018-04-13T10:00:09.647Z,16.90
2018-04-13T10:02:39.268Z,16.90
2018-04-13T10:05:23.522Z,17.00
2018-04-13T10:07:53.427Z,16.90
2018-04-13T10:10:22.256Z,16.80
2018-04-13T10:12:51.116Z,16.80
2018-04-13T10:15:20.001Z,16.70
2018-04-13T10:17:49.602Z,16.80
2018-04-13T10:20:19.232Z,17.00
2018-04-13T10:22:48.078Z,16.90
2018-04-13T10:25:16.952Z,17.10
2018-04-13T10:27:45.804Z,17.10
2018-04-13T10:30:14.645Z,17.00
2018-04-13T10:32:43.485Z,16.90
2018-04-13T10:35:12.356Z,17.00
2018-04-13T10:37:41.204Z,17.20
2018-04-13T10:40:10.060Z,17.40
2018-04-13T10:42:38.934Z,17.60
2018-04-13T10:45:08.513Z,17.70
2018-04-13T10:47:38.144Z,17.60
2018-04-13T10:50:07.434Z,17.60
2018-04-13T10:52:36.281Z,17.70
2018-04-13T10:55:05.946Z,17.80
2018-04-13T10:57:34.789Z,17.80
2018-04-13T11:00:04.402Z,17.40
2018-04-13T11:02:33.398Z,17.40
2018-04-13T11:05:02.993Z,17.10
2018-04-13T11:07:32.609Z,16.90
2018-04-13T11:10:01.446Z,16.90
2018-04-13T11:12:30.291Z,16.90
2018-04-13T11:14:59.247Z,16.70
2018-04-13T11:17:28.062Z,16.70
2018-04-13T11:19:57.682Z,16.50
2018-04-13T11:22:26.537Z,16.40
2018-04-13T11:24:55.438Z,16.50
2018-04-13T11:27:24.269Z,16.50
2018-04-13T11:29:53.109Z,16.40
2018-04-13T11:32:21.969Z,16.40
2018-04-13T11:34:50.810Z,16.30
2018-04-13T11:37:20.433Z,16.30
2018-04-13T11:39:49.280Z,16.20
2018-04-13T11:42:18.120Z,16.20
2018-04-13T11:44:46.993Z,16.20
2018-04-13T11:47:15.824Z,16.20
2018-04-13T11:49:45.445Z,16.30
2018-04-13T11:52:14.302Z,16.20
2018-04-13T11:54:43.932Z,16.40
2018-04-13T11:57:12.792Z,16.40
2018-04-13T11:59:41.632Z,16.70
2018-04-13T12:02:10.491Z,16.80
2018-04-13T12:04:40.105Z,16.80
2018-04-13T12:07:09.710Z,16.80
2018-04-13T12:09:39.342Z,16.80
2018-04-13T12:12:08.192Z,16.80
2018-04-13T12:14:37.823Z,17.10
2018-04-13T12:17:06.681Z,17.00
2018-04-13T12:19:35.543Z,17.10
2018-04-13T12:22:04.386Z,17.20
2018-04-13T12:24:34.014Z,17.00
2018-04-13T12:27:02.861Z,16.90
2018-04-13T12:29:32.973Z,17.30
2018-04-13T12:32:01.809Z,17.20
2018-04-13T12:34:30.670Z,17.30
2018-04-13T12:37:00.305Z,17.40
2018-04-13T12:39:30.459Z,17.40
2018-04-13T12:41:59.294Z,17.50
2018-04-13T12:44:28.914Z,17.30
2018-04-13T12:46:57.790Z,17.30
2018-04-13T12:49:26.734Z,17.10
2018-04-13T12:51:56.405Z,17.00
2018-04-13T12:54:26.690Z,16.60
2018-04-13T12:56:55.516Z,16.50
2018-04-13T12:59:25.108Z,16.40
2018-04-13T13:01:54.743Z,16.40
2018-04-13T13:04:23.608Z,16.40
2018-04-13T13:06:53.662Z,16.40
2018-04-13T13:09:22.500Z,16.30
2018-04-13T13:11:51.375Z,16.50
2018-04-13T13:14:20.225Z,16.70
2018-04-13T13:16:49.085Z,16.90
2018-04-13T13:19:18.688Z,17.00
2018-04-13T13:21:48.328Z,17.10
2018-04-13T13:24:17.188Z,17.00
2018-04-13T13:26:46.805Z,17.10
2018-04-13T13:29:16.437Z,17.20
2018-04-13T13:31:45.290Z,17.10
2018-04-13T13:34:15.663Z,16.90
2018-04-13T13:36:44.552Z,16.90
2018-04-13T13:39:13.405Z,16.80
2018-04-13T13:41:43.027Z,16.50
2018-04-13T13:44:11.921Z,16.50
2018-04-13T13:46:41.512Z,16.50
2018-04-13T13:49:11.141Z,16.50
2018-04-13T13:51:41.163Z,16.60
2018-04-13T13:54:10.353Z,16.60
2018-04-13T13:56:39.965Z,16.80
2018-04-13T13:59:08.834Z,16.70
2018-04-13T14:01:37.691Z,16.90
2018-04-13T14:04:06.582Z,16.90
2018-04-13T14:06:36.136Z,17.10
2018-04-13T14:09:06.705Z,17.20
2018-04-13T14:11:35.552Z,17.10
2018-04-13T14:14:05.194Z,17.30
2018-04-13T14:16:34.005Z,17.20
2018-04-13T14:19:02.875Z,17.30
2018-04-13T14:21:31.744Z,17.30
2018-04-13T14:24:00.610Z,17.20
2018-04-13T14:26:30.097Z,16.80
2018-04-13T14:28:58.940Z,16.70
2018-04-13T14:31:27.811Z,16.60
2018-04-13T14:33:56.671Z,16.30
2018-04-13T14:36:25.541Z,16.30
2018-04-13T14:38:54.407Z,16.20
2018-04-13T14:41:23.276Z,16.10
2018-04-13T14:43:52.864Z,16.30
2018-04-13T14:46:22.507Z,16.30
2018-04-13T14:48:52.118Z,16.40
2018-04-13T14:51:20.983Z,16.30
2018-04-13T14:53:50.602Z,16.50
2018-04-13T14:56:19.459Z,16.40
2018-04-13T14:58:49.065Z,16.40
2018-04-13T15:01:17.923Z,16.30
2018-04-13T15:03:46.774Z,16.10
2018-04-13T15:06:19.022Z,15.90
2018-04-13T15:08:48.630Z,15.90
2018-04-13T15:11:18.253Z,15.80
2018-04-13T15:13:47.865Z,15.90
2018-04-13T15:16:16.714Z,15.80
2018-04-13T15:18:45.560Z,15.90
2018-04-13T15:21:14.409Z,15.80
2018-04-13T15:23:43.284Z,15.90
2018-04-13T15:26:12.132Z,15.90
2018-04-13T15:28:40.976Z,16.00
2018-04-13T15:31:10.593Z,16.10
2018-04-13T15:33:40.226Z,16.00
2018-04-13T15:36:09.725Z,15.90
2018-04-13T15:38:38.616Z,16.00
2018-04-13T15:41:08.121Z,16.20
2018-04-13T15:43:36.999Z,16.40
2018-04-13T15:46:05.873Z,16.50
2018-04-13T15:48:35.479Z,16.50
2018-04-13T15:51:05.116Z,16.50
2018-04-13T15:53:33.951Z,16.50
2018-04-13T15:56:02.829Z,16.40
2018-04-13T15:58:31.678Z,16.40
2018-04-13T16:01:00.522Z,16.40
2018-04-13T16:03:29.352Z,16.50
2018-04-13T16:05:58.262Z,16.60
2018-04-13T16:08:27.108Z,16.70
2018-04-13T16:10:57.509Z,16.50
2018-04-13T16:13:26.589Z,16.50
2018-04-13T16:15:56.100Z,16.50
2018-04-13T16:18:24.953Z,16.50
2018-04-13T16:20:53.835Z,16.30
2018-04-13T16:23:22.655Z,16.10
2018-04-13T16:25:52.698Z,16.00
2018-04-13T16:28:21.554Z,16.00
2018-04-13T16:30:51.182Z,16.00
2018-04-13T16:33:20.109Z,16.00
2018-04-13T16:35:49.697Z,16.10
2018-04-13T16:38:18.582Z,16.10
2018-04-13T16:40:47.423Z,16.00
2018-04-13T16:43:17.905Z,16.00
2018-04-13T16:45:46.793Z,16.00
2018-04-13T16:48:15.633Z,15.80
2018-04-13T16:50:44.462Z,15.60
2018-04-13T16:53:13.332Z,15.50
2018-04-13T16:55:42.186Z,15.50
2018-04-13T16:58:11.814Z,15.50
2018-04-13T17:00:40.710Z,15.50
2018-04-13T17:03:09.548Z,15.40
2018-04-13T17:05:38.388Z,15.40
2018-04-13T17:08:08.160Z,15.30
2018-04-13T17:10:36.978Z,15.20
2018-04-13T17:13:05.820Z,15.20
2018-04-13T17:15:34.664Z,15.20
2018-04-13T17:18:03.584Z,15.10
2018-04-13T17:20:32.445Z,15.20
2018-04-13T17:23:01.280Z,15.10
2018-04-13T17:25:31.672Z,15.00
2018-04-13T17:28:00.529Z,15.00
2018-04-13T17:30:29.391Z,15.10
2018-04-13T17:32:58.238Z,15.10
2018-04-13T17:35:27.097Z,15.10
2018-04-13T17:37:56.712Z,15.20
2018-04-13T17:40:25.587Z,15.30
2018-04-13T17:42:55.185Z,15.30
2018-04-13T17:45:24.718Z,15.20
2018-04-13T17:47:54.328Z,15.20
2018-04-13T17:50:23.185Z,15.20
2018-04-13T17:52:52.141Z,15.20
2018-04-13T17:55:21.247Z,15.20
2018-04-13T17:57:50.104Z,15.30
2018-04-13T18:00:19.739Z,15.30
2018-04-13T18:02:48.611Z,15.20
2018-04-13T18:05:17.485Z,15.30
2018-04-13T18:07:47.109Z,15.30
2018-04-13T18:10:15.975Z,15.20
2018-04-13T18:12:45.593Z,15.30
2018-04-13T18:15:15.243Z,15.30
2018-04-13T18:17:44.096Z,15.20
2018-04-13T18:20:12.957Z,15.30
2018-04-13T18:22:42.651Z,15.30
2018-04-13T18:25:12.347Z,15.30
2018-04-13T18:27:41.194Z,15.30
2018-04-13T18:30:10.064Z,15.40
2018-04-13T18:32:39.701Z,15.40
2018-04-13T18:35:08.548Z,15.40
2018-04-13T18:37:38.814Z,15.70
2018-04-13T18:40:08.317Z,15.60
2018-04-13T18:42:37.192Z,15.70
2018-04-13T18:45:06.374Z,15.70
2018-04-13T18:47:36.031Z,15.70
2018-04-13T18:50:04.857Z,15.60
2018-04-13T18:52:34.428Z,15.70
2018-04-13T18:55:03.282Z,15.80
2018-04-13T18:57:32.154Z,15.80
2018-04-13T19:00:01.648Z,15.90
2018-04-13T19:02:30.492Z,15.90
2018-04-13T19:05:00.277Z,15.80
2018-04-13T19:07:29.912Z,15.70
2018-04-13T19:09:58.767Z,15.70
2018-04-13T19:12:27.641Z,15.70
2018-04-13T19:14:56.510Z,15.70
2018-04-13T19:17:25.345Z,15.70
2018-04-13T19:19:54.214Z,15.80
2018-04-13T19:22:23.832Z,15.80
2018-04-13T19:24:53.479Z,15.80
2018-04-13T19:27:23.147Z,15.70
2018-04-13T19:29:52.779Z,15.90
2018-04-13T19:32:22.057Z,15.80
2018-04-13T19:34:51.704Z,16.00
2018-04-13T19:37:22.695Z,15.90
2018-04-13T19:39:51.562Z,15.80
2018-04-13T19:42:21.170Z,15.80
2018-04-13T19:44:50.901Z,15.80
2018-04-13T19:47:19.745Z,15.90
2018-04-13T19:49:48.630Z,15.90
2018-04-13T19:52:18.194Z,16.00
2018-04-13T19:54:47.067Z,15.80
2018-04-13T19:57:15.929Z,15.70
2018-04-13T19:59:44.777Z,15.70
2018-04-13T20:02:13.669Z,15.70
2018-04-13T20:04:42.554Z,15.60
2018-04-13T20:07:11.434Z,15.50
2018-04-13T20:09:40.269Z,15.60
2018-04-13T20:12:09.128Z,15.60
2018-04-13T20:14:38.001Z,15.50
2018-04-13T20:17:06.887Z,15.50
2018-04-13T20:19:36.502Z,15.50
2018-04-13T20:22:05.397Z,15.40
2018-04-13T20:24:34.261Z,15.60
2018-04-13T20:27:03.896Z,15.70
2018-04-13T20:29:32.741Z,15.60
2018-04-13T20:32:02.376Z,15.70
2018-04-13T20:34:31.236Z,15.60
2018-04-13T20:37:00.864Z,15.70
2018-04-13T20:39:30.513Z,15.80
2018-04-13T20:41:59.373Z,15.70
2018-04-13T20:44:28.260Z,15.80
2018-04-13T20:46:57.862Z,15.60
2018-04-13T20:49:27.091Z,15.50
2018-04-13T20:51:55.957Z,15.50
2018-04-13T20:54:24.834Z,15.50
2018-04-13T20:56:53.657Z,15.60
2018-04-13T20:59:22.528Z,15.50
2018-04-13T21:01:52.133Z,15.60
2018-04-13T21:04:21.776Z,15.60
2018-04-13T21:06:50.633Z,15.60
2018-04-13T21:09:19.524Z,15.60
2018-04-13T21:11:49.129Z,15.50
2018-04-13T21:14:18.769Z,15.50
2018-04-13T21:16:48.434Z,15.40
2018-04-13T21:19:17.281Z,15.30
2018-04-13T21:21:46.770Z,15.30
2018-04-13T21:24:15.650Z,15.20
2018-04-13T21:26:44.510Z,15.30
2018-04-13T21:29:14.141Z,15.30
2018-04-13T21:31:42.985Z,15.30
2018-04-13T21:34:11.849Z,15.20
2018-04-13T21:36:40.701Z,15.10
2018-04-13T21:39:09.600Z,15.10
2018-04-13T21:41:39.090Z,15.10
2018-04-13T21:44:08.707Z,15.30
2018-04-13T21:46:38.345Z,15.30
2018-04-13T21:49:07.346Z,15.20
2018-04-13T21:51:36.213Z,15.30
2018-04-13T21:54:05.052Z,15.30
2018-04-13T21:56:34.702Z,15.30
2018-04-13T21:59:04.192Z,15.40
2018-04-13T22:01:33.048Z,15.40
2018-04-13T22:04:03.376Z,15.40
2018-04-13T22:06:33.010Z,15.50
2018-04-13T22:09:01.842Z,15.40
2018-04-13T22:11:30.716Z,15.40
2018-04-13T22:14:11.609Z,15.30
2018-04-13T22:16:40.455Z,15.40
2018-04-13T22:19:09.281Z,15.40
2018-04-13T22:21:38.155Z,15.40
2018-04-13T22:24:08.233Z,15.40
2018-04-13T22:26:37.076Z,15.40
2018-04-13T22:29:05.965Z,15.40
2018-04-13T22:31:34.785Z,15.40
2018-04-13T22:34:04.434Z,15.30
2018-04-13T22:36:33.282Z,15.30
2018-04-13T22:39:02.135Z,15.30
2018-04-13T22:41:30.988Z,15.30
2018-04-13T22:43:59.843Z,15.30
2018-04-13T22:46:28.686Z,15.20
2018-04-13T22:48:57.542Z,15.30
2018-04-13T22:51:27.152Z,15.30
2018-04-13T22:53:56.778Z,15.30
2018-04-13T22:56:25.584Z,15.20
2018-04-13T22:58:54.474Z,15.30
2018-04-13T23:01:23.360Z,15.20
2018-04-13T23:03:53.725Z,15.20
2018-04-13T23:06:22.578Z,15.20
2018-04-13T23:08:52.234Z,15.30
2018-04-13T23:11:21.080Z,15.30
2018-04-13T23:13:50.680Z,15.40
2018-04-13T23:16:19.610Z,15.40
2018-04-13T23:18:48.692Z,15.40
2018-04-13T23:21:17.545Z,15.40
2018-04-13T23:23:46.388Z,15.40
2018-04-13T23:26:15.243Z,15.40
2018-04-13T23:28:44.866Z,15.40
2018-04-13T23:31:14.488Z,15.40
2018-04-13T23:33:43.357Z,15.40
2018-04-13T23:36:12.236Z,15.40
2018-04-13T23:38:41.840Z,15.40
2018-04-13T23:41:11.030Z,15.40
2018-04-13T23:43:40.013Z,15.50
2018-04-13T23:46:08.876Z,15.50
2018-04-13T23:48:37.710Z,15.40
2018-04-13T23:51:06.545Z,15.50
2018-04-13T23:53:35.405Z,15.50
2018-04-13T23:56:05.019Z,15.50
2018-04-13T23:58:33.886Z,15.40
